createdAt,value
2018-06-21T00:02:14.940Z,15.90
2018-06-21T00:04:43.284Z,15.80
2018-06-21T00:07:11.677Z,15.80
2018-06-21T00:09:40.044Z,15.70
2018-06-21T00:12:08.381Z,15.70
2018-06-21T00:14:36.758Z,15.50
2018-06-21T00:17:05.210Z,15.50
2018-06-21T00:19:33.629Z,15.50
2018-06-21T00:22:02.088Z,15.40
2018-06-21T00:24:31.462Z,15.30
2018-06-21T00:26:59.827Z,15.20
2018-06-21T00:29:28.203Z,15.10
2018-06-21T00:31:57.161Z,15.00
2018-06-21T00:34:25.496Z,14.90
2018-06-21T00:36:53.886Z,15.00
2018-06-21T00:39:22.272Z,14.90
2018-06-21T00:41:51.075Z,15.00
2018-06-21T00:44:19.409Z,14.90
2018-06-21T00:46:47.738Z,14.80
2018-06-21T00:49:16.070Z,14.80
2018-06-21T00:51:44.420Z,14.80
2018-06-21T00:54:13.476Z,14.80
2018-06-21T00:56:41.795Z,14.80
2018-06-21T00:59:10.101Z,14.70
2018-06-21T01:04:06.528Z,14.70
2018-06-21T01:06:34.853Z,14.80
2018-06-21T01:09:03.365Z,14.70
2018-06-21T01:11:32.657Z,14.70
2018-06-21T01:14:01.039Z,14.70
2018-06-21T01:16:29.339Z,14.70
2018-06-21T01:18:57.735Z,14.60
2018-06-21T01:21:26.076Z,14.60
2018-06-21T01:23:54.392Z,14.60
2018-06-21T01:26:22.897Z,14.50
2018-06-21T01:28:51.251Z,14.50
2018-06-21T01:36:15.785Z,14.50
2018-06-21T01:38:44.149Z,14.40
2018-06-21T01:43:40.470Z,14.30
2018-06-21T01:46:08.840Z,14.40
2018-06-21T01:48:37.250Z,14.30
2018-06-21T01:53:33.705Z,14.40
2018-06-21T01:56:02.075Z,14.30
2018-06-21T01:58:30.473Z,14.30
2018-06-21T02:00:58.869Z,14.30
2018-06-21T02:03:27.199Z,14.30
2018-06-21T02:05:55.524Z,14.20
2018-06-21T02:08:23.855Z,14.20
2018-06-21T02:10:52.226Z,14.10
2018-06-21T02:13:20.564Z,13.90
2018-06-21T02:15:48.918Z,14.00
2018-06-21T02:18:17.317Z,14.00
2018-06-21T02:20:45.620Z,14.00
2018-06-21T02:23:14.020Z,14.10
2018-06-21T02:25:42.350Z,14.10
2018-06-21T02:28:10.696Z,14.20
2018-06-21T02:30:39.072Z,14.20
2018-06-21T02:33:07.388Z,14.10
2018-06-21T02:35:35.771Z,14.10
2018-06-21T02:38:04.115Z,14.00
2018-06-21T02:40:32.438Z,13.90
2018-06-21T02:43:00.802Z,13.90
2018-06-21T02:45:29.121Z,13.90
2018-06-21T02:47:57.420Z,13.90
2018-06-21T02:50:25.789Z,13.80
2018-06-21T02:52:54.113Z,13.70
2018-06-21T02:55:22.455Z,13.60
2018-06-21T02:57:50.751Z,13.60
2018-06-21T03:00:19.950Z,13.40
2018-06-21T03:02:48.297Z,13.50
2018-06-21T03:05:16.616Z,13.40
2018-06-21T03:07:44.988Z,13.50
2018-06-21T03:10:13.348Z,13.50
2018-06-21T03:12:41.686Z,13.60
2018-06-21T03:15:10.284Z,13.70
2018-06-21T03:17:38.644Z,13.70
2018-06-21T03:20:07.002Z,13.80
2018-06-21T03:22:35.334Z,13.90
2018-06-21T03:25:03.685Z,13.80
2018-06-21T03:27:32.554Z,13.90
2018-06-21T03:30:00.921Z,13.80
2018-06-21T03:32:29.253Z,13.80
2018-06-21T03:34:57.616Z,13.70
2018-06-21T03:37:25.938Z,13.60
2018-06-21T03:39:54.372Z,13.50
2018-06-21T03:42:22.733Z,13.60
2018-06-21T03:44:52.387Z,13.60
2018-06-21T03:47:20.789Z,13.60
2018-06-21T03:49:49.124Z,13.50
2018-06-21T03:52:17.526Z,13.50
2018-06-21T03:54:45.829Z,13.40
2018-06-21T03:57:14.182Z,13.40
2018-06-21T04:02:10.559Z,13.40
2018-06-21T04:04:38.897Z,13.70
2018-06-21T04:07:07.175Z,13.70
2018-06-21T04:09:35.494Z,13.80
2018-06-21T04:12:03.823Z,13.90
2018-06-21T04:14:32.178Z,14.10
2018-06-21T04:17:00.743Z,14.30
2018-06-21T04:19:29.141Z,14.40
2018-06-21T04:21:57.473Z,14.40
2018-06-21T04:24:26.259Z,14.60
2018-06-21T04:26:54.632Z,14.80
2018-06-21T04:29:23.150Z,15.20
2018-06-21T04:31:51.517Z,15.40
2018-06-21T04:34:19.893Z,15.50
2018-06-21T04:36:48.260Z,15.50
2018-06-21T04:39:16.618Z,15.30
2018-06-21T04:41:45.030Z,15.20
2018-06-21T04:44:13.396Z,15.30
2018-06-21T04:46:41.779Z,15.30
2018-06-21T04:49:10.153Z,15.20
2018-06-21T04:51:38.581Z,15.20
2018-06-21T04:54:06.999Z,15.30
2018-06-21T04:56:35.337Z,15.30
2018-06-21T04:59:03.736Z,15.40
2018-06-21T05:01:32.129Z,15.50
2018-06-21T05:04:00.454Z,15.70
2018-06-21T05:06:28.961Z,15.90
2018-06-21T05:08:57.300Z,16.00
2018-06-21T05:11:25.689Z,16.10
2018-06-21T05:13:54.137Z,16.30
2018-06-21T05:16:22.552Z,16.50
2018-06-21T05:18:51.850Z,16.60
2018-06-21T05:21:20.833Z,16.50
2018-06-21T05:23:49.717Z,16.60
2018-06-21T05:26:18.132Z,16.80
2018-06-21T05:28:46.473Z,17.00
2018-06-21T05:31:15.525Z,17.20
2018-06-21T05:33:43.921Z,17.40
2018-06-21T05:36:13.504Z,17.50
2018-06-21T05:38:41.884Z,17.60
2018-06-21T05:41:10.186Z,17.80
2018-06-21T05:43:39.280Z,17.90
2018-06-21T05:46:07.629Z,18.00
2018-06-21T05:48:36.018Z,18.20
2018-06-21T05:53:34.031Z,18.70
2018-06-21T05:56:02.418Z,18.90
2018-06-21T05:58:30.811Z,19.10
2018-06-21T06:00:59.162Z,19.00
2018-06-21T06:03:27.522Z,19.10
2018-06-21T06:05:55.858Z,19.30
2018-06-21T06:08:24.244Z,19.30
2018-06-21T06:10:53.463Z,19.30
2018-06-21T06:13:21.830Z,19.00
2018-06-21T06:15:50.189Z,19.20
2018-06-21T06:18:18.643Z,19.30
2018-06-21T06:20:47.059Z,19.40
2018-06-21T06:23:15.441Z,19.40
2018-06-21T06:25:43.849Z,19.90
2018-06-21T06:28:12.181Z,19.90
2018-06-21T06:30:40.532Z,19.70
2018-06-21T06:33:08.945Z,19.60
2018-06-21T06:35:37.282Z,19.50
2018-06-21T06:38:05.662Z,19.20
2018-06-21T06:40:34.095Z,19.20
2018-06-21T06:43:02.515Z,19.40
2018-06-21T06:47:59.005Z,19.60
2018-06-21T06:50:27.363Z,19.70
2018-06-21T06:52:55.709Z,19.90
2018-06-21T06:55:24.241Z,19.90
2018-06-21T06:57:52.816Z,19.80
2018-06-21T07:00:21.222Z,20.00
2018-06-21T07:02:49.611Z,20.30
2018-06-21T07:05:17.965Z,20.30
2018-06-21T07:07:46.316Z,20.40
2018-06-21T07:10:14.680Z,20.60
2018-06-21T07:12:43.089Z,20.40
2018-06-21T07:15:11.417Z,20.90
2018-06-21T07:17:40.098Z,21.20
2018-06-21T07:20:08.499Z,21.60
2018-06-21T07:22:36.828Z,21.20
2018-06-21T07:25:05.256Z,20.90
2018-06-21T07:27:33.608Z,20.90
2018-06-21T07:30:01.937Z,20.90
2018-06-21T07:32:30.379Z,20.80
2018-06-21T07:34:59.406Z,20.90
2018-06-21T07:37:27.952Z,21.50
2018-06-21T07:39:56.345Z,21.60
2018-06-21T07:42:24.699Z,21.40
2018-06-21T07:44:53.053Z,21.00
2018-06-21T07:47:21.452Z,21.20
2018-06-21T07:49:49.835Z,21.40
2018-06-21T07:52:18.179Z,21.50
2018-06-21T07:54:46.515Z,21.00
2018-06-21T07:57:14.865Z,21.30
2018-06-21T07:59:43.214Z,21.60
2018-06-21T08:02:11.564Z,21.40
2018-06-21T08:04:39.922Z,21.40
2018-06-21T08:07:08.379Z,21.30
2018-06-21T08:09:36.726Z,21.10
2018-06-21T08:12:05.087Z,21.30
2018-06-21T08:14:33.499Z,21.60
2018-06-21T08:17:01.821Z,21.90
2018-06-21T08:19:30.184Z,21.90
2018-06-21T08:21:58.530Z,22.20
2018-06-21T08:24:26.992Z,22.00
2018-06-21T08:26:55.412Z,21.90
2018-06-21T08:29:24.055Z,21.60
2018-06-21T08:31:52.399Z,21.30
2018-06-21T08:34:20.803Z,21.50
2018-06-21T08:36:49.156Z,21.30
2018-06-21T08:39:17.512Z,21.20
2018-06-21T08:41:45.942Z,20.80
2018-06-21T08:44:14.306Z,20.70
2018-06-21T08:49:10.740Z,20.60
2018-06-21T08:51:39.133Z,20.50
2018-06-21T08:54:07.525Z,20.40
2018-06-21T08:56:35.853Z,20.40
2018-06-21T08:59:04.231Z,21.00
2018-06-21T09:01:32.600Z,21.50
2018-06-21T09:04:00.967Z,22.00
2018-06-21T09:06:29.301Z,22.00
2018-06-21T09:08:57.644Z,22.00
2018-06-21T09:11:26.039Z,21.80
2018-06-21T09:13:54.403Z,21.60
2018-06-21T09:16:22.757Z,21.50
2018-06-21T09:18:51.165Z,21.20
2018-06-21T09:21:19.578Z,20.70
2018-06-21T09:23:48.361Z,20.60
2018-06-21T09:26:16.785Z,20.50
2018-06-21T09:28:45.248Z,20.20
2018-06-21T09:31:15.394Z,19.60
2018-06-21T09:33:43.762Z,19.20
2018-06-21T09:36:12.150Z,18.50
2018-06-21T09:38:46.008Z,18.10
2018-06-21T09:41:20.016Z,18.00
2018-06-21T09:44:03.822Z,17.80
2018-06-21T09:46:33.874Z,17.50
2018-06-21T09:48:55.828Z,17.50
2018-06-21T09:51:24.306Z,17.60
2018-06-21T09:53:52.682Z,17.60
2018-06-21T09:56:21.079Z,17.80
2018-06-21T09:58:49.608Z,18.00
2018-06-21T10:01:18.065Z,18.00
2018-06-21T10:03:46.630Z,18.00
2018-06-21T10:06:15.077Z,18.00
2018-06-21T10:08:43.445Z,18.30
2018-06-21T10:11:12.967Z,18.50
2018-06-21T10:13:41.350Z,18.50
2018-06-21T10:16:09.752Z,18.30
2018-06-21T10:18:38.132Z,18.20
2018-06-21T10:21:06.569Z,18.20
2018-06-21T10:23:35.003Z,18.20
2018-06-21T10:26:03.407Z,18.50
2018-06-21T10:28:31.789Z,18.70
2018-06-21T10:31:00.229Z,18.90
2018-06-21T10:33:28.616Z,19.20
2018-06-21T10:35:56.992Z,19.60
2018-06-21T10:38:25.410Z,20.00
2018-06-21T10:40:53.841Z,20.50
2018-06-21T10:43:22.288Z,20.40
2018-06-21T10:45:51.464Z,20.20
2018-06-21T10:48:19.842Z,20.30
2018-06-21T10:50:48.276Z,20.40
2018-06-21T10:53:16.656Z,20.10
2018-06-21T10:55:45.285Z,20.20
2018-06-21T10:58:13.828Z,20.30
2018-06-21T11:00:42.253Z,20.50
2018-06-21T11:03:10.983Z,20.90
2018-06-21T11:05:39.357Z,20.80
2018-06-21T11:08:07.789Z,20.90
2018-06-21T11:10:36.194Z,21.30
2018-06-21T11:13:04.801Z,21.60
2018-06-21T11:15:33.208Z,21.90
2018-06-21T11:18:01.636Z,21.40
2018-06-21T11:20:30.059Z,20.90
2018-06-21T11:22:58.458Z,21.00
2018-06-21T11:25:26.851Z,21.90
2018-06-21T11:27:55.267Z,21.50
2018-06-21T11:30:23.629Z,21.20
2018-06-21T11:32:53.122Z,20.80
2018-06-21T11:35:21.470Z,21.00
2018-06-21T11:37:49.839Z,20.50
2018-06-21T11:40:18.185Z,20.80
2018-06-21T11:42:46.543Z,20.90
2018-06-21T11:45:14.955Z,21.90
2018-06-21T11:47:43.338Z,22.20
2018-06-21T11:50:11.711Z,21.90
2018-06-21T11:52:40.158Z,21.50
2018-06-21T11:55:08.504Z,22.30
2018-06-21T11:57:36.908Z,22.60
2018-06-21T12:00:05.352Z,22.60
2018-06-21T12:02:33.706Z,23.10
2018-06-21T12:05:02.092Z,22.70
2018-06-21T12:07:30.981Z,22.20
2018-06-21T12:09:59.413Z,22.60
2018-06-21T12:12:27.802Z,22.70
2018-06-21T12:14:56.230Z,23.10
2018-06-21T12:17:24.583Z,23.50
2018-06-21T12:19:52.984Z,23.70
2018-06-21T12:22:21.430Z,24.20
2018-06-21T12:24:49.842Z,24.00
2018-06-21T12:27:18.349Z,24.30
2018-06-21T12:29:47.929Z,24.30
2018-06-21T12:32:16.418Z,24.10
2018-06-21T12:34:44.900Z,23.50
2018-06-21T12:37:13.252Z,22.80
2018-06-21T12:39:41.647Z,22.30
2018-06-21T12:42:10.225Z,21.60
2018-06-21T12:44:38.665Z,20.90
2018-06-21T12:47:07.055Z,20.40
2018-06-21T12:49:35.634Z,21.40
2018-06-21T12:52:04.039Z,22.60
2018-06-21T12:54:32.466Z,22.00
2018-06-21T12:57:00.846Z,21.50
2018-06-21T12:59:29.230Z,21.40
2018-06-21T13:01:57.657Z,21.60
2018-06-21T13:04:26.356Z,22.20
2018-06-21T13:06:54.679Z,22.60
2018-06-21T13:09:34.361Z,22.90
2018-06-21T13:12:39.977Z,23.70
2018-06-21T13:15:08.408Z,24.20
2018-06-21T13:17:36.762Z,23.70
2018-06-21T13:20:06.208Z,23.10
2018-06-21T13:22:34.616Z,22.60
2018-06-21T13:25:03.412Z,21.60
2018-06-21T13:27:32.284Z,22.10
2018-06-21T13:30:00.636Z,23.60
2018-06-21T13:32:29.041Z,24.70
2018-06-21T13:34:57.430Z,24.30
2018-06-21T13:37:25.794Z,24.30
2018-06-21T13:39:54.206Z,25.00
2018-06-21T13:42:22.600Z,25.60
2018-06-21T13:44:50.968Z,24.30
2018-06-21T13:47:19.410Z,24.70
2018-06-21T13:49:47.821Z,25.20
2018-06-21T13:52:16.540Z,24.60
2018-06-21T13:54:44.909Z,24.70
2018-06-21T13:57:13.216Z,25.50
2018-06-21T13:59:41.691Z,26.10
2018-06-21T14:02:10.018Z,24.90
2018-06-21T14:04:38.365Z,23.90
2018-06-21T14:07:06.765Z,24.00
2018-06-21T14:09:35.115Z,24.50
2018-06-21T14:12:03.495Z,22.70
2018-06-21T14:14:31.885Z,23.30
2018-06-21T14:17:00.255Z,24.70
2018-06-21T14:19:28.618Z,25.10
2018-06-21T14:21:57.002Z,23.50
2018-06-21T14:24:25.381Z,23.70
2018-06-21T14:26:53.770Z,23.70
2018-06-21T14:29:22.151Z,24.00
2018-06-21T14:31:50.537Z,23.90
2018-06-21T14:34:18.931Z,24.70
2018-06-21T14:36:47.303Z,24.90
2018-06-21T14:39:15.670Z,25.50
2018-06-21T14:41:44.043Z,26.20
2018-06-21T14:44:12.431Z,25.50
2018-06-21T14:46:40.836Z,25.60
2018-06-21T14:49:09.219Z,25.20
2018-06-21T14:51:37.646Z,24.30
2018-06-21T14:54:06.049Z,22.80
2018-06-21T14:56:34.468Z,22.80
2018-06-21T14:59:02.818Z,21.90
2018-06-21T15:01:31.226Z,20.90
2018-06-21T15:03:59.632Z,22.30
2018-06-21T15:06:28.022Z,23.60
2018-06-21T15:08:56.400Z,23.80
2018-06-21T15:11:24.905Z,24.50
2018-06-21T15:13:53.241Z,24.70
2018-06-21T15:16:22.977Z,24.00
2018-06-21T15:18:51.435Z,23.10
2018-06-21T15:21:19.852Z,24.10
2018-06-21T15:23:48.571Z,24.00
2018-06-21T15:26:17.009Z,24.20
2018-06-21T15:28:45.401Z,24.10
2018-06-21T15:31:13.848Z,24.40
2018-06-21T15:33:42.219Z,22.60
2018-06-21T15:36:10.630Z,21.10
2018-06-21T15:38:39.042Z,20.60
2018-06-21T15:41:07.448Z,21.10
2018-06-21T15:43:35.888Z,21.90
2018-06-21T15:46:04.300Z,22.80
2018-06-21T15:48:32.696Z,23.00
2018-06-21T15:51:01.137Z,22.50
2018-06-21T15:53:29.577Z,22.70
2018-06-21T15:55:58.043Z,22.20
2018-06-21T15:58:26.596Z,22.40
2018-06-21T16:00:54.985Z,22.60
2018-06-21T16:03:23.525Z,22.70
2018-06-21T16:05:52.062Z,22.00
2018-06-21T16:08:20.521Z,20.40
2018-06-21T16:10:49.022Z,20.00
2018-06-21T16:13:17.968Z,21.20
2018-06-21T16:15:47.901Z,22.50
2018-06-21T16:18:16.558Z,22.60
2018-06-21T16:20:45.515Z,22.90
2018-06-21T16:23:14.070Z,22.20
2018-06-21T16:25:42.489Z,21.00
2018-06-21T16:28:11.484Z,20.50
2018-06-21T16:30:39.834Z,20.70
2018-06-21T16:33:08.518Z,21.10
2018-06-21T16:35:36.910Z,20.20
2018-06-21T16:38:05.338Z,19.90
2018-06-21T16:40:33.724Z,21.00
2018-06-21T16:43:02.111Z,21.50
2018-06-21T16:45:30.476Z,21.10
2018-06-21T16:47:58.857Z,20.50
2018-06-21T16:50:27.275Z,20.30
2018-06-21T16:52:55.639Z,20.30
2018-06-21T16:55:24.071Z,19.80
2018-06-21T16:57:52.470Z,19.30
2018-06-21T17:00:20.849Z,19.10
2018-06-21T17:02:49.245Z,19.10
2018-06-21T17:05:17.609Z,19.50
2018-06-21T17:10:14.148Z,19.30
2018-06-21T17:12:42.659Z,19.70
2018-06-21T17:15:11.101Z,19.30
2018-06-21T17:17:39.492Z,19.40
2018-06-21T17:20:07.903Z,19.20
2018-06-21T17:22:36.379Z,18.70
2018-06-21T17:25:04.733Z,18.30
2018-06-21T17:27:33.129Z,17.80
2018-06-21T17:30:02.003Z,17.40
2018-06-21T17:32:30.363Z,16.90
2018-06-21T17:34:58.771Z,16.80
2018-06-21T17:37:27.944Z,16.40
2018-06-21T17:39:56.354Z,16.20
2018-06-21T17:42:24.836Z,16.20
2018-06-21T17:44:54.242Z,15.90
2018-06-21T17:47:22.552Z,16.10
2018-06-21T17:49:51.060Z,15.60
2018-06-21T17:52:19.468Z,15.40
2018-06-21T17:54:47.848Z,15.40
2018-06-21T17:59:44.412Z,15.10
2018-06-21T18:02:12.853Z,15.10
2018-06-21T18:04:41.278Z,15.00
2018-06-21T18:07:09.671Z,14.80
2018-06-21T18:09:38.281Z,14.90
2018-06-21T18:12:06.652Z,14.80
2018-06-21T18:14:35.005Z,14.80
2018-06-21T18:17:03.407Z,14.70
2018-06-21T18:19:31.828Z,14.60
2018-06-21T18:22:00.202Z,14.70
2018-06-21T18:24:28.720Z,14.60
2018-06-21T18:26:57.064Z,14.50
2018-06-21T18:29:25.577Z,14.40
2018-06-21T18:31:54.025Z,14.40
2018-06-21T18:34:22.390Z,14.30
2018-06-21T18:36:50.795Z,14.10
2018-06-21T18:39:19.220Z,13.90
2018-06-21T18:41:47.644Z,13.50
2018-06-21T18:44:16.034Z,13.40
2018-06-21T18:49:13.326Z,13.60
2018-06-21T18:51:41.681Z,13.50
2018-06-21T18:56:38.207Z,13.30
2018-06-21T18:59:06.717Z,13.20
2018-06-21T19:01:35.239Z,13.10
2018-06-21T19:04:03.658Z,13.20
2018-06-21T19:06:37.516Z,13.10
2018-06-21T19:09:12.897Z,13.10
2018-06-21T19:11:46.838Z,12.90
2018-06-21T19:14:15.295Z,13.00
2018-06-21T19:16:43.960Z,12.90
2018-06-21T19:19:12.401Z,12.90
2018-06-21T19:21:40.868Z,12.90
2018-06-21T19:24:09.339Z,12.90
2018-06-21T19:26:37.735Z,12.80
2018-06-21T19:29:06.198Z,12.80
2018-06-21T19:31:35.209Z,12.60
2018-06-21T19:34:03.815Z,12.70
2018-06-21T19:36:32.370Z,12.60
2018-06-21T19:39:01.942Z,12.60
2018-06-21T19:41:30.351Z,12.50
2018-06-21T19:43:58.772Z,12.50
2018-06-21T19:46:27.299Z,12.30
2018-06-21T19:48:55.736Z,12.20
2018-06-21T19:51:24.122Z,12.20
2018-06-21T19:53:52.461Z,12.20
2018-06-21T19:56:20.873Z,12.20
2018-06-21T19:58:49.384Z,12.10
2018-06-21T20:01:17.975Z,12.10
2018-06-21T20:03:46.374Z,12.00
2018-06-21T20:06:14.785Z,12.00
2018-06-21T20:08:43.869Z,12.00
2018-06-21T20:11:17.453Z,11.90
2018-06-21T20:13:46.955Z,11.90
2018-06-21T20:16:15.706Z,11.70
2018-06-21T20:18:44.151Z,11.60
2018-06-21T20:21:16.517Z,11.50
2018-06-21T20:23:50.068Z,11.40
2018-06-21T20:26:19.272Z,11.40
2018-06-21T20:28:47.743Z,11.40
2018-06-21T20:31:17.227Z,11.20
2018-06-21T20:33:46.778Z,11.20
2018-06-21T20:36:15.619Z,11.10
2018-06-21T20:38:43.985Z,10.90
2018-06-21T20:41:12.814Z,11.10
2018-06-21T20:43:41.206Z,11.00
2018-06-21T20:48:37.630Z,11.00
2018-06-21T20:51:06.036Z,11.10
2018-06-21T20:56:02.519Z,11.00
2018-06-21T20:58:30.950Z,11.00
2018-06-21T21:00:59.356Z,11.00
2018-06-21T21:03:27.748Z,10.80
2018-06-21T21:05:56.141Z,10.70
2018-06-21T21:08:24.491Z,10.60
2018-06-21T21:10:52.858Z,10.40
2018-06-21T21:13:21.232Z,10.40
2018-06-21T21:15:49.606Z,10.40
2018-06-21T21:18:18.207Z,10.40
2018-06-21T21:20:46.531Z,10.30
2018-06-21T21:23:14.959Z,10.20
2018-06-21T21:25:43.320Z,10.20
2018-06-21T21:28:11.658Z,10.20
2018-06-21T21:30:40.048Z,10.20
2018-06-21T21:33:08.421Z,10.10
2018-06-21T21:35:36.781Z,10.20
2018-06-21T21:38:05.105Z,10.20
2018-06-21T21:40:33.404Z,10.20
2018-06-21T21:43:01.742Z,10.20
2018-06-21T21:45:30.106Z,10.10
2018-06-21T21:47:58.460Z,10.10
2018-06-21T21:50:26.811Z,10.00
2018-06-21T21:52:55.239Z,10.10
2018-06-21T21:55:23.593Z,10.10
2018-06-21T21:57:51.954Z,10.10
2018-06-21T22:11:10.685Z,10.00
2018-06-21T22:13:39.008Z,10.00
2018-06-21T22:16:07.355Z,9.70
2018-06-21T22:18:35.693Z,9.70
2018-06-21T22:21:04.675Z,9.80
2018-06-21T22:23:33.026Z,9.80
2018-06-21T22:26:01.381Z,9.80
2018-06-21T22:28:29.696Z,9.70
2018-06-21T22:30:58.038Z,9.60
2018-06-21T22:33:26.456Z,9.60
2018-06-21T22:35:54.794Z,9.40
2018-06-21T22:38:23.149Z,9.50
2018-06-21T22:40:51.467Z,9.40
2018-06-21T22:43:19.772Z,9.40
2018-06-21T22:45:48.119Z,9.40
2018-06-21T22:48:16.513Z,9.30
2018-06-21T22:50:44.874Z,9.20
2018-06-21T22:53:13.194Z,9.20
2018-06-21T22:55:41.628Z,9.30
2018-06-21T22:58:10.023Z,9.30
2018-06-21T23:00:38.340Z,9.30
2018-06-21T23:03:06.732Z,9.30
2018-06-21T23:05:35.080Z,9.20
2018-06-21T23:08:03.415Z,9.20
2018-06-21T23:10:31.733Z,9.20
2018-06-21T23:13:00.089Z,9.20
2018-06-21T23:15:28.423Z,9.10
2018-06-21T23:17:56.806Z,9.10
2018-06-21T23:20:25.151Z,9.10
2018-06-21T23:22:53.457Z,9.10
2018-06-21T23:25:21.786Z,9.10
2018-06-21T23:27:50.191Z,9.00
2018-06-21T23:30:18.528Z,9.00
2018-06-21T23:32:46.913Z,9.00
2018-06-21T23:35:15.232Z,9.00
2018-06-21T23:37:43.624Z,9.00
2018-06-21T23:40:11.931Z,8.90
2018-06-21T23:42:40.246Z,8.90
2018-06-21T23:45:08.573Z,9.00
2018-06-21T23:47:36.877Z,9.00
2018-06-21T23:50:05.238Z,8.90
2018-06-21T23:52:33.803Z,8.80
2018-06-21T23:55:02.100Z,8.80
2018-06-21T23:57:30.422Z,8.80
2018-06-21T23:59:58.738Z,8.80
